sensor_id;sensor_type;location;lat;lon;timestamp;pressure;altitude;pressure_sealevel;temperature;humidity
58018;BME280;43810;50.860;19.226;2022-12-07T00:03:36;98108.22;;;1.35;90.74
58018;BME280;43810;50.860;19.226;2022-12-07T00:06:04;98102.94;;;1.41;90.55
58018;BME280;43810;50.860;19.226;2022-12-07T00:08:31;98101.44;;;1.34;90.54
58018;BME280;43810;50.860;19.226;2022-12-07T00:11:07;98096.41;;;1.38;90.43
58018;BME280;43810;50.860;19.226;2022-12-07T00:13:35;98106.56;;;1.45;90.44
58018;BME280;43810;50.860;19.226;2022-12-07T00:16:03;98095.31;;;1.44;90.27
58018;BME280;43810;50.860;19.226;2022-12-07T00:18:29;98102.56;;;1.47;90.38
58018;BME280;43810;50.860;19.226;2022-12-07T00:21:05;98102.53;;;1.52;90.01
58018;BME280;43810;50.860;19.226;2022-12-07T00:23:32;98103.09;;;1.49;89.84
58018;BME280;43810;50.860;19.226;2022-12-07T00:28:48;98103.66;;;1.46;90.31
58018;BME280;43810;50.860;19.226;2022-12-07T00:31:15;98096.88;;;1.45;90.12
58018;BME280;43810;50.860;19.226;2022-12-07T00:33:42;98091.91;;;1.44;90.17
58018;BME280;43810;50.860;19.226;2022-12-07T00:36:10;98093.38;;;1.50;89.98
58018;BME280;43810;50.860;19.226;2022-12-07T00:38:37;98089.50;;;1.47;90.32
58018;BME280;43810;50.860;19.226;2022-12-07T00:41:17;98087.72;;;1.43;90.50
58018;BME280;43810;50.860;19.226;2022-12-07T00:43:45;98088.28;;;1.40;90.28
58018;BME280;43810;50.860;19.226;2022-12-07T00:46:12;98087.44;;;1.44;90.47
58018;BME280;43810;50.860;19.226;2022-12-07T00:48:39;98079.53;;;1.49;90.46
58018;BME280;43810;50.860;19.226;2022-12-07T00:51:05;98095.50;;;1.48;90.48
58018;BME280;43810;50.860;19.226;2022-12-07T00:53:34;98082.72;;;1.46;90.63
58018;BME280;43810;50.860;19.226;2022-12-07T00:58:33;98100.19;;;1.51;90.04
58018;BME280;43810;50.860;19.226;2022-12-07T01:01:03;98092.88;;;1.48;90.32
58018;BME280;43810;50.860;19.226;2022-12-07T01:03:30;98086.41;;;1.45;90.58
58018;BME280;43810;50.860;19.226;2022-12-07T01:05:56;98080.56;;;1.48;90.33
58018;BME280;43810;50.860;19.226;2022-12-07T01:08:23;98088.50;;;1.43;90.07
58018;BME280;43810;50.860;19.226;2022-12-07T01:10:56;98085.63;;;1.45;90.32
58018;BME280;43810;50.860;19.226;2022-12-07T01:13:22;98087.28;;;1.35;90.51
58018;BME280;43810;50.860;19.226;2022-12-07T01:15:48;98086.72;;;1.39;90.60
58018;BME280;43810;50.860;19.226;2022-12-07T01:18:14;98084.59;;;1.41;90.68
58018;BME280;43810;50.860;19.226;2022-12-07T01:20:39;98088.28;;;1.40;90.93
58018;BME280;43810;50.860;19.226;2022-12-07T01:23:05;98087.38;;;1.49;90.48
58018;BME280;43810;50.860;19.226;2022-12-07T01:25:31;98080.56;;;1.48;90.31
58018;BME280;43810;50.860;19.226;2022-12-07T01:27:57;98075.56;;;1.52;89.94
58018;BME280;43810;50.860;19.226;2022-12-07T01:30:23;98079.03;;;1.47;90.02
58018;BME280;43810;50.860;19.226;2022-12-07T01:32:49;98068.06;;;1.45;90.34
58018;BME280;43810;50.860;19.226;2022-12-07T01:35:15;98076.84;;;1.54;90.08
58018;BME280;43810;50.860;19.226;2022-12-07T01:37:40;98087.59;;;1.53;89.52
58018;BME280;43810;50.860;19.226;2022-12-07T01:40:08;98087.66;;;1.48;89.75
58018;BME280;43810;50.860;19.226;2022-12-07T01:42:34;98086.31;;;1.50;89.85
58018;BME280;43810;50.860;19.226;2022-12-07T01:48:05;98080.44;;;1.40;90.48
58018;BME280;43810;50.860;19.226;2022-12-07T01:50:32;98082.25;;;1.39;90.21
58018;BME280;43810;50.860;19.226;2022-12-07T01:53:00;98079.94;;;1.38;90.72
58018;BME280;43810;50.860;19.226;2022-12-07T01:55:29;98073.72;;;1.33;90.58
58018;BME280;43810;50.860;19.226;2022-12-07T01:57:55;98076.81;;;1.35;90.68
58018;BME280;43810;50.860;19.226;2022-12-07T02:00:22;98068.13;;;1.40;90.73
58018;BME280;43810;50.860;19.226;2022-12-07T02:05:30;98062.34;;;1.43;90.41
58018;BME280;43810;50.860;19.226;2022-12-07T02:07:57;98072.03;;;1.43;90.28
58018;BME280;43810;50.860;19.226;2022-12-07T02:10:26;98059.44;;;1.45;90.09
58018;BME280;43810;50.860;19.226;2022-12-07T02:37:14;98054.47;;;1.43;90.89
58018;BME280;43810;50.860;19.226;2022-12-07T02:39:51;98048.97;;;1.45;90.51
58018;BME280;43810;50.860;19.226;2022-12-07T02:42:27;98047.41;;;1.44;90.58
58018;BME280;43810;50.860;19.226;2022-12-07T02:44:56;98045.28;;;1.46;90.36
58018;BME280;43810;50.860;19.226;2022-12-07T02:47:24;98044.56;;;1.40;90.38
58018;BME280;43810;50.860;19.226;2022-12-07T02:49:51;98047.81;;;1.32;91.05
58018;BME280;43810;50.860;19.226;2022-12-07T02:52:17;98046.47;;;1.34;91.14
58018;BME280;43810;50.860;19.226;2022-12-07T02:54:43;98043.50;;;1.41;91.06
58018;BME280;43810;50.860;19.226;2022-12-07T03:00:20;98031.97;;;1.42;91.07
58018;BME280;43810;50.860;19.226;2022-12-07T03:03:00;98029.00;;;1.49;90.88
58018;BME280;43810;50.860;19.226;2022-12-07T03:18:25;98033.00;;;1.46;91.00
58018;BME280;43810;50.860;19.226;2022-12-07T03:20:55;98030.16;;;1.43;90.91
58018;BME280;43810;50.860;19.226;2022-12-07T03:23:23;98032.69;;;1.48;90.97
58018;BME280;43810;50.860;19.226;2022-12-07T03:25:55;98041.13;;;1.45;90.91
58018;BME280;43810;50.860;19.226;2022-12-07T03:28:24;98030.66;;;1.45;90.76
58018;BME280;43810;50.860;19.226;2022-12-07T03:31:21;98026.75;;;1.42;91.10
58018;BME280;43810;50.860;19.226;2022-12-07T03:36:37;98019.59;;;1.48;91.00
58018;BME280;43810;50.860;19.226;2022-12-07T03:39:24;98017.56;;;1.45;90.93
58018;BME280;43810;50.860;19.226;2022-12-07T03:41:52;98012.81;;;1.47;90.83
58018;BME280;43810;50.860;19.226;2022-12-07T03:44:20;98008.16;;;1.44;90.95
58018;BME280;43810;50.860;19.226;2022-12-07T03:49:50;98003.09;;;1.47;91.04
58018;BME280;43810;50.860;19.226;2022-12-07T03:55:17;97995.91;;;1.39;91.27
58018;BME280;43810;50.860;19.226;2022-12-07T03:57:47;98000.28;;;1.44;91.44
58018;BME280;43810;50.860;19.226;2022-12-07T04:00:15;97999.25;;;1.45;90.87
58018;BME280;43810;50.860;19.226;2022-12-07T04:02:42;98000.28;;;1.44;91.16
58018;BME280;43810;50.860;19.226;2022-12-07T04:05:08;98005.25;;;1.45;91.30
58018;BME280;43810;50.860;19.226;2022-12-07T04:07:34;98005.53;;;1.44;91.12
58018;BME280;43810;50.860;19.226;2022-12-07T04:10:00;98003.53;;;1.35;91.41
58018;BME280;43810;50.860;19.226;2022-12-07T04:12:26;97998.50;;;1.39;91.29
58018;BME280;43810;50.860;19.226;2022-12-07T04:14:51;97999.84;;;1.36;91.09
58018;BME280;43810;50.860;19.226;2022-12-07T04:17:17;97998.78;;;1.38;91.30
58018;BME280;43810;50.860;19.226;2022-12-07T04:19:43;97998.88;;;1.32;90.92
58018;BME280;43810;50.860;19.226;2022-12-07T04:22:09;98007.34;;;1.24;91.31
58018;BME280;43810;50.860;19.226;2022-12-07T04:24:34;98005.78;;;1.23;91.39
58018;BME280;43810;50.860;19.226;2022-12-07T04:27:00;98012.56;;;1.24;91.52
58018;BME280;43810;50.860;19.226;2022-12-07T04:29:26;98007.28;;;1.29;91.58
58018;BME280;43810;50.860;19.226;2022-12-07T04:31:53;98007.00;;;1.31;91.24
58018;BME280;43810;50.860;19.226;2022-12-07T04:34:19;98003.09;;;1.28;91.21
58018;BME280;43810;50.860;19.226;2022-12-07T04:36:46;98005.72;;;1.28;91.38
58018;BME280;43810;50.860;19.226;2022-12-07T04:39:21;98004.66;;;1.29;90.90
58018;BME280;43810;50.860;19.226;2022-12-07T04:41:47;97994.06;;;1.21;90.84
58018;BME280;43810;50.860;19.226;2022-12-07T04:44:13;98001.69;;;1.17;91.16
58018;BME280;43810;50.860;19.226;2022-12-07T04:46:41;97999.63;;;1.14;90.88
58018;BME280;43810;50.860;19.226;2022-12-07T04:49:07;97995.44;;;1.13;91.17
58018;BME280;43810;50.860;19.226;2022-12-07T04:51:33;97986.75;;;1.18;91.07
58018;BME280;43810;50.860;19.226;2022-12-07T04:53:59;97985.19;;;1.17;91.03
58018;BME280;43810;50.860;19.226;2022-12-07T04:56:25;97989.66;;;1.16;91.09
58018;BME280;43810;50.860;19.226;2022-12-07T04:58:52;97991.72;;;1.19;91.03
58018;BME280;43810;50.860;19.226;2022-12-07T05:01:19;97990.06;;;1.23;91.06
58018;BME280;43810;50.860;19.226;2022-12-07T05:03:44;97994.25;;;1.24;90.70
58018;BME280;43810;50.860;19.226;2022-12-07T05:06:11;97990.66;;;1.20;90.79
58018;BME280;43810;50.860;19.226;2022-12-07T05:08:37;97987.53;;;1.18;90.95
58018;BME280;43810;50.860;19.226;2022-12-07T05:11:04;97983.88;;;1.19;91.06
58018;BME280;43810;50.860;19.226;2022-12-07T05:13:31;97986.13;;;1.26;91.03
58018;BME280;43810;50.860;19.226;2022-12-07T05:15:57;97990.66;;;1.20;91.02
58018;BME280;43810;50.860;19.226;2022-12-07T05:18:23;97986.97;;;1.21;91.33
58018;BME280;43810;50.860;19.226;2022-12-07T05:20:49;97992.41;;;1.25;91.07
58018;BME280;43810;50.860;19.226;2022-12-07T05:23:17;97984.28;;;1.26;91.04
58018;BME280;43810;50.860;19.226;2022-12-07T05:25:43;97992.63;;;1.28;91.09
58018;BME280;43810;50.860;19.226;2022-12-07T05:28:10;97991.06;;;1.27;90.93
58018;BME280;43810;50.860;19.226;2022-12-07T05:30:36;97985.84;;;1.27;90.79
58018;BME280;43810;50.860;19.226;2022-12-07T05:33:02;97987.91;;;1.30;90.83
58018;BME280;43810;50.860;19.226;2022-12-07T05:35:28;97994.75;;;1.26;90.83
58018;BME280;43810;50.860;19.226;2022-12-07T05:37:55;97991.84;;;1.28;91.30
58018;BME280;43810;50.860;19.226;2022-12-07T05:40:23;97992.09;;;1.31;90.89
58018;BME280;43810;50.860;19.226;2022-12-07T05:42:48;97987.91;;;1.30;90.82
58018;BME280;43810;50.860;19.226;2022-12-07T05:45:14;98003.59;;;1.30;90.42
58018;BME280;43810;50.860;19.226;2022-12-07T05:47:40;98007.28;;;1.29;90.70
58018;BME280;43810;50.860;19.226;2022-12-07T05:50:06;98004.16;;;1.27;90.68
58018;BME280;43810;50.860;19.226;2022-12-07T05:52:32;98001.03;;;1.25;90.96
58018;BME280;43810;50.860;19.226;2022-12-07T05:54:58;98015.13;;;1.29;90.96
58018;BME280;43810;50.860;19.226;2022-12-07T05:57:24;98012.50;;;1.29;90.37
58018;BME280;43810;50.860;19.226;2022-12-07T05:59:50;98012.38;;;1.21;90.49
58018;BME280;43810;50.860;19.226;2022-12-07T06:02:16;98010.72;;;1.25;90.57
58018;BME280;43810;50.860;19.226;2022-12-07T06:04:46;98014.97;;;1.21;90.40
58018;BME280;43810;50.860;19.226;2022-12-07T06:07:13;98019.72;;;1.19;90.66
58018;BME280;43810;50.860;19.226;2022-12-07T06:09:40;98019.25;;;1.12;90.75
58018;BME280;43810;50.860;19.226;2022-12-07T06:12:06;98019.56;;;1.10;90.76
58018;BME280;43810;50.860;19.226;2022-12-07T06:14:51;98009.09;;;1.10;91.05
58018;BME280;43810;50.860;19.226;2022-12-07T06:17:17;98018.56;;;1.06;91.29
58018;BME280;43810;50.860;19.226;2022-12-07T06:19:43;98019.25;;;1.12;91.11
58018;BME280;43810;50.860;19.226;2022-12-07T06:22:09;98012.91;;;1.18;90.90
58018;BME280;43810;50.860;19.226;2022-12-07T06:24:37;98013.19;;;1.16;90.90
58018;BME280;43810;50.860;19.226;2022-12-07T06:27:04;98011.13;;;1.13;90.79
58018;BME280;43810;50.860;19.226;2022-12-07T06:29:30;98010.94;;;1.10;90.76
58018;BME280;43810;50.860;19.226;2022-12-07T06:31:56;98016.38;;;1.13;90.87
58018;BME280;43810;50.860;19.226;2022-12-07T06:34:23;98019.75;;;1.14;91.07
58018;BME280;43810;50.860;19.226;2022-12-07T06:36:50;98024.44;;;1.17;90.95
58018;BME280;43810;50.860;19.226;2022-12-07T06:39:23;98018.44;;;1.16;90.75
58018;BME280;43810;50.860;19.226;2022-12-07T06:41:50;98020.03;;;1.12;90.67
58018;BME280;43810;50.860;19.226;2022-12-07T06:44:18;98025.28;;;1.12;90.92
58018;BME280;43810;50.860;19.226;2022-12-07T06:46:44;98021.13;;;1.11;90.97
58018;BME280;43810;50.860;19.226;2022-12-07T06:49:10;98023.50;;;1.08;90.96
58018;BME280;43810;50.860;19.226;2022-12-07T06:51:36;98025.84;;;1.09;91.21
58018;BME280;43810;50.860;19.226;2022-12-07T06:54:07;98025.84;;;1.09;90.82
58018;BME280;43810;50.860;19.226;2022-12-07T06:56:33;98030.56;;;1.07;90.68
58018;BME280;43810;50.860;19.226;2022-12-07T06:58:59;98026.13;;;1.08;91.04
58018;BME280;43810;50.860;19.226;2022-12-07T07:01:25;98036.09;;;1.06;90.79
58018;BME280;43810;50.860;19.226;2022-12-07T07:03:51;98030.06;;;1.05;90.70
58018;BME280;43810;50.860;19.226;2022-12-07T07:06:17;98035.03;;;1.07;90.95
58018;BME280;43810;50.860;19.226;2022-12-07T07:08:43;98041.53;;;1.09;90.96
58018;BME280;43810;50.860;19.226;2022-12-07T07:11:09;98027.97;;;1.07;90.67
58018;BME280;43810;50.860;19.226;2022-12-07T07:13:36;98037.66;;;1.07;91.00
58018;BME280;43810;50.860;19.226;2022-12-07T07:16:02;98033.19;;;1.07;90.81
58018;BME280;43810;50.860;19.226;2022-12-07T07:18:28;98037.13;;;1.05;90.80
58018;BME280;43810;50.860;19.226;2022-12-07T07:20:54;98041.09;;;1.02;90.86
58018;BME280;43810;50.860;19.226;2022-12-07T07:23:21;98026.44;;;1.01;90.77
58018;BME280;43810;50.860;19.226;2022-12-07T07:25:46;98030.41;;;0.98;91.22
58018;BME280;43810;50.860;19.226;2022-12-07T07:28:15;98046.31;;;1.02;90.97
58018;BME280;43810;50.860;19.226;2022-12-07T07:30:41;98033.44;;;1.11;90.76
58018;BME280;43810;50.860;19.226;2022-12-07T07:33:07;98034.19;;;1.11;90.86
58018;BME280;43810;50.860;19.226;2022-12-07T07:35:34;98032.66;;;1.10;91.07
58018;BME280;43810;50.860;19.226;2022-12-07T07:38:00;98035.72;;;1.12;90.90
58018;BME280;43810;50.860;19.226;2022-12-07T07:40:27;98038.59;;;1.16;90.82
58018;BME280;43810;50.860;19.226;2022-12-07T07:42:55;98032.28;;;1.17;90.66
58018;BME280;43810;50.860;19.226;2022-12-07T07:45:22;98041.97;;;1.16;90.99
58018;BME280;43810;50.860;19.226;2022-12-07T07:47:49;98042.41;;;1.23;90.65
58018;BME280;43810;50.860;19.226;2022-12-07T07:50:16;98045.59;;;1.20;90.21
58018;BME280;43810;50.860;19.226;2022-12-07T07:52:42;98048.13;;;1.25;90.32
58018;BME280;43810;50.860;19.226;2022-12-07T07:55:08;98040.78;;;1.27;90.17
58018;BME280;43810;50.860;19.226;2022-12-07T07:57:35;98040.88;;;1.22;90.04
58018;BME280;43810;50.860;19.226;2022-12-07T08:00:07;98054.50;;;1.19;90.36
58018;BME280;43810;50.860;19.226;2022-12-07T08:02:33;98060.41;;;1.06;90.62
58018;BME280;43810;50.860;19.226;2022-12-07T08:04:59;98049.91;;;1.11;90.96
58018;BME280;43810;50.860;19.226;2022-12-07T08:07:27;98047.47;;;1.15;90.53
58018;BME280;43810;50.860;19.226;2022-12-07T08:09:52;98058.72;;;1.15;90.64
58018;BME280;43810;50.860;19.226;2022-12-07T08:12:18;98053.19;;;1.22;90.70
58018;BME280;43810;50.860;19.226;2022-12-07T08:14:44;98052.41;;;1.21;90.65
58018;BME280;43810;50.860;19.226;2022-12-07T08:17:10;98052.88;;;1.23;90.43
58018;BME280;43810;50.860;19.226;2022-12-07T08:19:36;98047.09;;;1.26;90.49
58018;BME280;43810;50.860;19.226;2022-12-07T08:22:02;98059.19;;;1.22;90.15
58018;BME280;43810;50.860;19.226;2022-12-07T08:24:28;98059.75;;;1.19;90.63
58018;BME280;43810;50.860;19.226;2022-12-07T08:26:53;98055.22;;;1.25;90.59
58018;BME280;43810;50.860;19.226;2022-12-07T08:29:19;98065.91;;;1.28;90.60
58018;BME280;43810;50.860;19.226;2022-12-07T08:31:46;98060.13;;;1.31;90.25
58018;BME280;43810;50.860;19.226;2022-12-07T08:34:13;98068.81;;;1.27;90.47
58018;BME280;43810;50.860;19.226;2022-12-07T08:36:39;98071.13;;;1.28;90.60
58018;BME280;43810;50.860;19.226;2022-12-07T08:39:05;98066.69;;;1.29;90.70
58018;BME280;43810;50.860;19.226;2022-12-07T08:41:31;98069.59;;;1.27;90.71
58018;BME280;43810;50.860;19.226;2022-12-07T08:43:58;98067.13;;;1.36;90.66
58018;BME280;43810;50.860;19.226;2022-12-07T08:46:44;98073.09;;;1.42;90.55
58018;BME280;43810;50.860;19.226;2022-12-07T08:49:20;98075.06;;;1.50;90.29
58018;BME280;43810;50.860;19.226;2022-12-07T08:51:47;98081.81;;;1.56;90.26
58018;BME280;43810;50.860;19.226;2022-12-07T08:54:16;98079.19;;;1.56;90.10
58018;BME280;43810;50.860;19.226;2022-12-07T08:56:44;98074.25;;;1.54;89.75
58018;BME280;43810;50.860;19.226;2022-12-07T08:59:14;98077.50;;;1.46;90.33
58018;BME280;43810;50.860;19.226;2022-12-07T09:01:40;98076.75;;;1.41;90.21
58018;BME280;43810;50.860;19.226;2022-12-07T09:04:06;98068.84;;;1.46;90.27
58018;BME280;43810;50.860;19.226;2022-12-07T09:06:33;98079.59;;;1.44;90.28
58018;BME280;43810;50.860;19.226;2022-12-07T09:09:00;98073.59;;;1.44;90.24
58018;BME280;43810;50.860;19.226;2022-12-07T09:11:26;98068.91;;;1.41;90.13
58018;BME280;43810;50.860;19.226;2022-12-07T09:13:53;98077.81;;;1.40;90.15
58018;BME280;43810;50.860;19.226;2022-12-07T09:16:18;98065.13;;;1.28;90.61
58018;BME280;43810;50.860;19.226;2022-12-07T09:18:44;98059.66;;;1.24;90.96
58018;BME280;43810;50.860;19.226;2022-12-07T09:21:10;98061.72;;;1.27;90.67
58018;BME280;43810;50.860;19.226;2022-12-07T09:23:36;98051.25;;;1.27;91.06
58018;BME280;43810;50.860;19.226;2022-12-07T09:26:03;98060.13;;;1.31;90.99
58018;BME280;43810;50.860;19.226;2022-12-07T09:28:31;98051.09;;;1.43;90.81
58018;BME280;43810;50.860;19.226;2022-12-07T09:30:56;98052.28;;;1.50;90.87
58018;BME280;43810;50.860;19.226;2022-12-07T09:33:22;98051.78;;;1.48;90.27
58018;BME280;43810;50.860;19.226;2022-12-07T09:35:49;98048.84;;;1.55;90.64
58018;BME280;43810;50.860;19.226;2022-12-07T09:38:16;98049.81;;;1.59;90.68
58018;BME280;43810;50.860;19.226;2022-12-07T09:40:42;98051.38;;;1.60;90.17
58018;BME280;43810;50.860;19.226;2022-12-07T09:43:17;98047.13;;;1.64;90.36
58018;BME280;43810;50.860;19.226;2022-12-07T09:45:44;98046.09;;;1.65;90.28
58018;BME280;43810;50.860;19.226;2022-12-07T09:48:17;98046.09;;;1.65;90.12
58018;BME280;43810;50.860;19.226;2022-12-07T09:50:46;98039.00;;;1.65;90.08
58018;BME280;43810;50.860;19.226;2022-12-07T09:53:23;98042.31;;;1.71;90.10
58018;BME280;43810;50.860;19.226;2022-12-07T09:55:50;98043.19;;;1.66;89.93
58018;BME280;43810;50.860;19.226;2022-12-07T09:58:27;98043.97;;;1.67;90.11
58018;BME280;43810;50.860;19.226;2022-12-07T10:00:56;98043.72;;;1.82;90.28
58018;BME280;43810;50.860;19.226;2022-12-07T10:03:23;98046.06;;;1.84;89.67
58018;BME280;43810;50.860;19.226;2022-12-07T10:05:50;98043.94;;;1.86;89.98
58018;BME280;43810;50.860;19.226;2022-12-07T10:08:16;98039.34;;;1.96;89.85
58018;BME280;43810;50.860;19.226;2022-12-07T10:10:43;98030.81;;;2.04;89.73
58018;BME280;43810;50.860;19.226;2022-12-07T10:13:14;98036.56;;;2.06;89.27
58018;BME280;43810;50.860;19.226;2022-12-07T10:15:58;98035.59;;;2.02;89.06
58018;BME280;43810;50.860;19.226;2022-12-07T10:18:40;98030.63;;;2.01;89.09
58018;BME280;43810;50.860;19.226;2022-12-07T10:21:13;98022.97;;;2.04;89.15
58018;BME280;43810;50.860;19.226;2022-12-07T10:23:42;98030.03;;;2.04;88.95
58018;BME280;43810;50.860;19.226;2022-12-07T10:29:24;98026.75;;;1.98;88.85
58018;BME280;43810;50.860;19.226;2022-12-07T10:34:32;98017.47;;;1.87;88.90
58018;BME280;43810;50.860;19.226;2022-12-07T10:39:54;98014.63;;;2.02;89.30
58018;BME280;43810;50.860;19.226;2022-12-07T10:42:24;98017.16;;;2.07;89.55
58018;BME280;43810;50.860;19.226;2022-12-07T10:45:13;98012.63;;;2.13;89.20
58018;BME280;43810;50.860;19.226;2022-12-07T11:18:22;98000.78;;;2.16;88.85
58018;BME280;43810;50.860;19.226;2022-12-07T11:26:04;97986.47;;;2.27;88.66
58018;BME280;43810;50.860;19.226;2022-12-07T11:35:02;97975.09;;;2.31;88.46
58018;BME280;43810;50.860;19.226;2022-12-07T11:37:25;97972.28;;;2.28;88.30
58018;BME280;43810;50.860;19.226;2022-12-07T11:39:59;97974.03;;;2.32;88.29
58018;BME280;43810;50.860;19.226;2022-12-07T11:42:30;97970.75;;;2.27;88.29
58018;BME280;43810;50.860;19.226;2022-12-07T11:45:12;97971.50;;;2.27;88.35
58018;BME280;43810;50.860;19.226;2022-12-07T11:58:20;97955.22;;;2.99;88.48
58018;BME280;43810;50.860;19.226;2022-12-07T12:01:02;97956.06;;;3.08;88.16
58018;BME280;43810;50.860;19.226;2022-12-07T12:03:36;97950.16;;;3.02;87.91
58018;BME280;43810;50.860;19.226;2022-12-07T12:06:04;97944.44;;;3.00;87.45
58018;BME280;43810;50.860;19.226;2022-12-07T12:08:35;97943.16;;;2.98;87.19
58018;BME280;43810;50.860;19.226;2022-12-07T12:17:38;97928.28;;;3.07;87.18
58018;BME280;43810;50.860;19.226;2022-12-07T12:20:05;97932.34;;;3.13;87.31
58018;BME280;43810;50.860;19.226;2022-12-07T12:22:43;97944.47;;;3.23;86.80
58018;BME280;43810;50.860;19.226;2022-12-07T12:25:25;97930.69;;;3.17;86.09
58018;BME280;43810;50.860;19.226;2022-12-07T12:27:55;97934.78;;;3.09;87.04
58018;BME280;43810;50.860;19.226;2022-12-07T12:33:03;97929.44;;;3.14;86.30
58018;BME280;43810;50.860;19.226;2022-12-07T12:35:33;97926.91;;;3.09;86.44
58018;BME280;43810;50.860;19.226;2022-12-07T12:40:47;97919.13;;;3.18;87.08
58018;BME280;43810;50.860;19.226;2022-12-07T12:43:46;97916.09;;;3.25;86.12
58018;BME280;43810;50.860;19.226;2022-12-07T12:51:41;97917.91;;;3.02;86.03
58018;BME280;43810;50.860;19.226;2022-12-07T12:54:15;97912.84;;;3.05;86.76
58018;BME280;43810;50.860;19.226;2022-12-07T12:59:30;97902.50;;;3.09;86.75
58018;BME280;43810;50.860;19.226;2022-12-07T13:15:45;97890.47;;;3.08;87.02
58018;BME280;43810;50.860;19.226;2022-12-07T13:23:37;97890.59;;;3.03;86.73
58018;BME280;43810;50.860;19.226;2022-12-07T13:28:37;97896.34;;;2.91;87.20
58018;BME280;43810;50.860;19.226;2022-12-07T13:33:47;97904.41;;;2.95;87.20
58018;BME280;43810;50.860;19.226;2022-12-07T13:36:24;97911.22;;;2.96;87.14
58018;BME280;43810;50.860;19.226;2022-12-07T13:38:56;97901.78;;;2.95;86.85
58018;BME280;43810;50.860;19.226;2022-12-07T13:41:27;97906.25;;;2.94;87.32
58018;BME280;43810;50.860;19.226;2022-12-07T13:44:03;97905.69;;;2.84;87.28
58018;BME280;43810;50.860;19.226;2022-12-07T13:46:45;97913.06;;;2.81;87.38
58018;BME280;43810;50.860;19.226;2022-12-07T13:49:20;97917.84;;;2.79;86.99
58018;BME280;43810;50.860;19.226;2022-12-07T13:51:47;97927.16;;;2.72;87.15
58018;BME280;43810;50.860;19.226;2022-12-07T13:54:13;97923.38;;;2.64;87.29
58018;BME280;43810;50.860;19.226;2022-12-07T13:56:40;97927.06;;;2.63;87.60
58018;BME280;43810;50.860;19.226;2022-12-07T13:59:24;97929.78;;;2.58;87.43
58018;BME280;43810;50.860;19.226;2022-12-07T14:01:52;97924.63;;;2.53;87.85
58018;BME280;43810;50.860;19.226;2022-12-07T14:06:56;97935.69;;;2.50;88.04
58018;BME280;43810;50.860;19.226;2022-12-07T14:09:24;97947.34;;;2.44;88.48
58018;BME280;43810;50.860;19.226;2022-12-07T14:11:52;97955.50;;;2.42;88.70
58018;BME280;43810;50.860;19.226;2022-12-07T14:14:30;97953.00;;;2.37;88.87
58018;BME280;43810;50.860;19.226;2022-12-07T14:16:59;97941.31;;;2.30;89.14
58018;BME280;43810;50.860;19.226;2022-12-07T14:24:48;97942.06;;;2.17;88.88
58018;BME280;43810;50.860;19.226;2022-12-07T14:27:19;97945.28;;;2.14;88.83
58018;BME280;43810;50.860;19.226;2022-12-07T14:29:45;97947.91;;;2.14;88.97
58018;BME280;43810;50.860;19.226;2022-12-07T14:32:25;97946.25;;;2.18;88.75
58018;BME280;43810;50.860;19.226;2022-12-07T14:34:55;97952.38;;;2.13;88.71
58018;BME280;43810;50.860;19.226;2022-12-07T14:37:21;97951.66;;;2.07;88.77
58018;BME280;43810;50.860;19.226;2022-12-07T14:39:46;97944.84;;;2.06;88.28
58018;BME280;43810;50.860;19.226;2022-12-07T14:42:12;97958.69;;;1.93;88.48
58018;BME280;43810;50.860;19.226;2022-12-07T14:44:38;97962.47;;;1.87;88.45
58018;BME280;43810;50.860;19.226;2022-12-07T14:47:04;97951.59;;;1.80;88.83
58018;BME280;43810;50.860;19.226;2022-12-07T14:49:30;97956.97;;;1.70;88.87
58018;BME280;43810;50.860;19.226;2022-12-07T14:51:56;97953.44;;;1.61;88.79
58018;BME280;43810;50.860;19.226;2022-12-07T14:54:24;97957.00;;;1.51;88.99
58018;BME280;43810;50.860;19.226;2022-12-07T14:56:53;97955.72;;;1.49;88.94
58018;BME280;43810;50.860;19.226;2022-12-07T14:59:18;97961.03;;;1.44;88.86
58018;BME280;43810;50.860;19.226;2022-12-07T15:01:44;97961.97;;;1.34;88.77
58018;BME280;43810;50.860;19.226;2022-12-07T15:04:10;97957.56;;;1.29;89.14
58018;BME280;43810;50.860;19.226;2022-12-07T15:06:36;97963.34;;;1.26;88.92
58018;BME280;43810;50.860;19.226;2022-12-07T15:09:02;97960.59;;;1.18;88.82
58018;BME280;43810;50.860;19.226;2022-12-07T15:11:28;97960.44;;;1.09;89.29
58018;BME280;43810;50.860;19.226;2022-12-07T15:13:53;97960.38;;;1.14;89.24
58018;BME280;43810;50.860;19.226;2022-12-07T15:16:37;97956.19;;;1.13;89.27
58018;BME280;43810;50.860;19.226;2022-12-07T15:19:08;97950.41;;;1.16;89.68
58018;BME280;43810;50.860;19.226;2022-12-07T15:21:36;97961.59;;;1.22;89.74
58018;BME280;43810;50.860;19.226;2022-12-07T15:24:01;97959.13;;;1.30;89.60
58018;BME280;43810;50.860;19.226;2022-12-07T15:26:27;97958.06;;;1.31;89.31
58018;BME280;43810;50.860;19.226;2022-12-07T15:28:53;97962.25;;;1.32;89.48
58018;BME280;43810;50.860;19.226;2022-12-07T15:31:20;97956.91;;;1.38;89.18
58018;BME280;43810;50.860;19.226;2022-12-07T15:33:45;97960.44;;;1.47;88.87
58018;BME280;43810;50.860;19.226;2022-12-07T15:36:20;97951.53;;;1.48;88.89
58018;BME280;43810;50.860;19.226;2022-12-07T15:38:47;97949.00;;;1.43;88.93
58018;BME280;43810;50.860;19.226;2022-12-07T15:41:13;97952.69;;;1.42;89.30
58018;BME280;43810;50.860;19.226;2022-12-07T15:43:39;97950.56;;;1.44;89.09
58018;BME280;43810;50.860;19.226;2022-12-07T15:46:23;97952.75;;;1.36;88.74
58018;BME280;43810;50.860;19.226;2022-12-07T15:48:48;97956.00;;;1.28;88.51
58018;BME280;43810;50.860;19.226;2022-12-07T15:51:14;97962.28;;;1.27;88.67
58018;BME280;43810;50.860;19.226;2022-12-07T15:53:40;97966.75;;;1.27;88.85
58018;BME280;43810;50.860;19.226;2022-12-07T15:56:07;97959.44;;;1.24;89.03
58018;BME280;43810;50.860;19.226;2022-12-07T15:58:33;97965.13;;;1.31;88.69
58018;BME280;43810;50.860;19.226;2022-12-07T16:00:59;97965.41;;;1.29;88.82
58018;BME280;43810;50.860;19.226;2022-12-07T16:03:26;97961.78;;;1.25;88.57